sensor_id;sensor_type;location;lat;lon;timestamp;P1;durP1;ratioP1;P2;durP2;ratioP2
45382;SDS011;42455;51.660;5.824;2023-11-18T00:03:18;39.5;;;32.0;;
45382;SDS011;42455;51.660;5.824;2023-11-18T00:08:24;36.0;;;27.0;;
45382;SDS011;42455;51.660;5.824;2023-11-18T00:13:30;34.0;;;27.0;;
45382;SDS011;42455;51.660;5.824;2023-11-18T00:18:36;36.0;;;28.0;;
45382;SDS011;42455;51.660;5.824;2023-11-18T00:23:42;35.0;;;27.0;;
45382;SDS011;42455;51.660;5.824;2023-11-18T00:28:49;34.0;;;25.0;;
45382;SDS011;42455;51.660;5.824;2023-11-18T00:33:55;34.0;;;25.0;;
45382;SDS011;42455;51.660;5.824;2023-11-18T00:39:01;32.0;;;24.0;;
45382;SDS011;42455;51.660;5.824;2023-11-18T00:44:07;33.5;;;24.0;;
45382;SDS011;42455;51.660;5.824;2023-11-18T00:49:13;32.0;;;24.0;;
45382;SDS011;42455;51.660;5.824;2023-11-18T00:54:20;32.0;;;23.0;;
45382;SDS011;42455;51.660;5.824;2023-11-18T00:59:26;31.0;;;23.0;;
45382;SDS011;42455;51.660;5.824;2023-11-18T01:04:32;31.0;;;23.0;;
45382;SDS011;42455;51.660;5.824;2023-11-18T01:09:38;28.0;;;22.0;;
45382;SDS011;42455;51.660;5.824;2023-11-18T01:14:45;28.0;;;23.0;;
45382;SDS011;42455;51.660;5.824;2023-11-18T01:19:51;31.0;;;23.0;;
45382;SDS011;42455;51.660;5.824;2023-11-18T01:24:57;31.0;;;23.0;;
45382;SDS011;42455;51.660;5.824;2023-11-18T01:30:03;34.0;;;23.0;;
45382;SDS011;42455;51.660;5.824;2023-11-18T01:35:09;34.0;;;24.0;;
45382;SDS011;42455;51.660;5.824;2023-11-18T01:40:15;42.0;;;25.0;;
45382;SDS011;42455;51.660;5.824;2023-11-18T01:45:21;42.0;;;25.0;;
45382;SDS011;42455;51.660;5.824;2023-11-18T01:50:27;42.0;;;26.0;;
45382;SDS011;42455;51.660;5.824;2023-11-18T01:55:33;49.0;;;27.0;;
45382;SDS011;42455;51.660;5.824;2023-11-18T02:00:40;43.5;;;27.0;;
45382;SDS011;42455;51.660;5.824;2023-11-18T02:05:46;53.5;;;27.0;;
45382;SDS011;42455;51.660;5.824;2023-11-18T02:11:04;45.5;;;26.0;;
45382;SDS011;42455;51.660;5.824;2023-11-18T02:15:58;50.5;;;28.0;;
45382;SDS011;42455;51.660;5.824;2023-11-18T02:21:07;53.5;;;27.0;;
45382;SDS011;42455;51.660;5.824;2023-11-18T02:26:10;48.0;;;27.0;;
45382;SDS011;42455;51.660;5.824;2023-11-18T02:31:27;52.5;;;28.0;;
45382;SDS011;42455;51.660;5.824;2023-11-18T02:36:43;51.0;;;28.0;;
45382;SDS011;42455;51.660;5.824;2023-11-18T02:41:29;52.0;;;28.0;;
45382;SDS011;42455;51.660;5.824;2023-11-18T02:46:36;50.0;;;28.0;;
45382;SDS011;42455;51.660;5.824;2023-11-18T02:51:41;57.5;;;28.0;;
45382;SDS011;42455;51.660;5.824;2023-11-18T02:56:48;54.0;;;28.0;;
45382;SDS011;42455;51.660;5.824;2023-11-18T03:01:54;45.5;;;28.0;;
45382;SDS011;42455;51.660;5.824;2023-11-18T03:06:59;47.0;;;29.0;;
45382;SDS011;42455;51.660;5.824;2023-11-18T03:12:05;48.0;;;28.0;;
45382;SDS011;42455;51.660;5.824;2023-11-18T03:17:11;56.0;;;30.0;;
45382;SDS011;42455;51.660;5.824;2023-11-18T03:22:18;55.0;;;29.5;;
45382;SDS011;42455;51.660;5.824;2023-11-18T03:27:24;50.0;;;30.0;;
45382;SDS011;42455;51.660;5.824;2023-11-18T03:32:30;49.0;;;30.0;;
45382;SDS011;42455;51.660;5.824;2023-11-18T03:37:36;46.5;;;29.0;;
45382;SDS011;42455;51.660;5.824;2023-11-18T03:42:43;56.5;;;29.0;;
45382;SDS011;42455;51.660;5.824;2023-11-18T03:47:49;45.0;;;29.0;;
45382;SDS011;42455;51.660;5.824;2023-11-18T03:52:55;45.0;;;30.0;;
45382;SDS011;42455;51.660;5.824;2023-11-18T03:58:01;46.0;;;31.0;;
45382;SDS011;42455;51.660;5.824;2023-11-18T04:03:07;47.0;;;31.0;;
45382;SDS011;42455;51.660;5.824;2023-11-18T04:08:14;43.0;;;30.0;;
45382;SDS011;42455;51.660;5.824;2023-11-18T04:13:20;40.0;;;29.0;;
45382;SDS011;42455;51.660;5.824;2023-11-18T04:18:26;40.0;;;29.0;;
45382;SDS011;42455;51.660;5.824;2023-11-18T04:23:32;37.0;;;28.0;;
45382;SDS011;42455;51.660;5.824;2023-11-18T04:28:38;38.0;;;29.0;;
45382;SDS011;42455;51.660;5.824;2023-11-18T04:33:45;37.0;;;28.0;;
45382;SDS011;42455;51.660;5.824;2023-11-18T04:38:51;36.5;;;28.0;;
45382;SDS011;42455;51.660;5.824;2023-11-18T04:43:57;39.0;;;28.0;;
45382;SDS011;42455;51.660;5.824;2023-11-18T04:49:03;39.0;;;28.0;;
45382;SDS011;42455;51.660;5.824;2023-11-18T04:54:10;36.0;;;28.0;;
45382;SDS011;42455;51.660;5.824;2023-11-18T04:59:16;36.5;;;28.0;;
45382;SDS011;42455;51.660;5.824;2023-11-18T05:04:22;38.0;;;28.0;;
45382;SDS011;42455;51.660;5.824;2023-11-18T05:09:28;36.0;;;28.0;;
45382;SDS011;42455;51.660;5.824;2023-11-18T05:14:34;34.0;;;29.0;;
45382;SDS011;42455;51.660;5.824;2023-11-18T05:19:40;35.0;;;28.0;;
45382;SDS011;42455;51.660;5.824;2023-11-18T05:24:47;38.0;;;29.0;;
45382;SDS011;42455;51.660;5.824;2023-11-18T05:29:53;35.5;;;28.0;;
45382;SDS011;42455;51.660;5.824;2023-11-18T05:34:59;36.0;;;28.0;;
45382;SDS011;42455;51.660;5.824;2023-11-18T05:45:12;32.0;;;28.0;;
45382;SDS011;42455;51.660;5.824;2023-11-18T05:50:18;33.0;;;27.0;;
45382;SDS011;42455;51.660;5.824;2023-11-18T05:55:24;31.0;;;26.0;;
45382;SDS011;42455;51.660;5.824;2023-11-18T06:00:30;33.0;;;26.0;;
45382;SDS011;42455;51.660;5.824;2023-11-18T06:05:36;32.0;;;26.0;;
45382;SDS011;42455;51.660;5.824;2023-11-18T06:10:43;31.5;;;25.0;;
45382;SDS011;42455;51.660;5.824;2023-11-18T06:15:49;30.5;;;25.0;;
45382;SDS011;42455;51.660;5.824;2023-11-18T06:20:55;30.0;;;25.0;;
45382;SDS011;42455;51.660;5.824;2023-11-18T06:26:01;31.0;;;25.0;;
45382;SDS011;42455;51.660;5.824;2023-11-18T06:31:07;30.0;;;24.0;;
45382;SDS011;42455;51.660;5.824;2023-11-18T06:36:17;28.5;;;23.0;;
45382;SDS011;42455;51.660;5.824;2023-11-18T06:41:21;28.0;;;23.0;;
45382;SDS011;42455;51.660;5.824;2023-11-18T06:46:27;28.0;;;23.0;;
45382;SDS011;42455;51.660;5.824;2023-11-18T06:51:33;28.0;;;23.0;;
45382;SDS011;42455;51.660;5.824;2023-11-18T06:56:39;25.0;;;22.0;;
45382;SDS011;42455;51.660;5.824;2023-11-18T07:01:45;27.0;;;22.0;;
45382;SDS011;42455;51.660;5.824;2023-11-18T07:06:51;26.0;;;22.0;;
45382;SDS011;42455;51.660;5.824;2023-11-18T07:11:57;26.0;;;21.0;;
45382;SDS011;42455;51.660;5.824;2023-11-18T07:17:03;27.0;;;20.0;;
45382;SDS011;42455;51.660;5.824;2023-11-18T07:22:09;23.5;;;19.0;;
45382;SDS011;42455;51.660;5.824;2023-11-18T07:27:16;26.0;;;20.0;;
45382;SDS011;42455;51.660;5.824;2023-11-18T07:32:22;23.0;;;19.0;;
45382;SDS011;42455;51.660;5.824;2023-11-18T07:37:28;21.0;;;18.0;;
45382;SDS011;42455;51.660;5.824;2023-11-18T07:42:34;23.5;;;18.0;;
45382;SDS011;42455;51.660;5.824;2023-11-18T07:47:41;21.0;;;19.0;;
45382;SDS011;42455;51.660;5.824;2023-11-18T07:52:47;22.0;;;18.0;;
45382;SDS011;42455;51.660;5.824;2023-11-18T07:57:53;21.0;;;17.5;;
45382;SDS011;42455;51.660;5.824;2023-11-18T08:02:59;20.0;;;17.0;;
45382;SDS011;42455;51.660;5.824;2023-11-18T08:08:05;21.0;;;17.0;;
45382;SDS011;42455;51.660;5.824;2023-11-18T08:13:12;19.0;;;16.0;;
45382;SDS011;42455;51.660;5.824;2023-11-18T08:18:18;19.5;;;16.0;;
45382;SDS011;42455;51.660;5.824;2023-11-18T08:23:24;19.0;;;16.0;;
45382;SDS011;42455;51.660;5.824;2023-11-18T08:28:30;20.0;;;16.0;;
45382;SDS011;42455;51.660;5.824;2023-11-18T08:33:36;19.0;;;16.0;;
45382;SDS011;42455;51.660;5.824;2023-11-18T08:38:42;19.0;;;15.0;;
45382;SDS011;42455;51.660;5.824;2023-11-18T08:43:48;20.0;;;15.0;;
45382;SDS011;42455;51.660;5.824;2023-11-18T08:48:54;19.0;;;15.0;;
45382;SDS011;42455;51.660;5.824;2023-11-18T08:54:00;19.0;;;15.0;;
45382;SDS011;42455;51.660;5.824;2023-11-18T08:59:06;16.0;;;14.0;;
45382;SDS011;42455;51.660;5.824;2023-11-18T09:04:13;19.0;;;13.0;;
45382;SDS011;42455;51.660;5.824;2023-11-18T09:09:19;18.0;;;13.0;;
45382;SDS011;42455;51.660;5.824;2023-11-18T09:14:25;14.0;;;12.0;;
45382;SDS011;42455;51.660;5.824;2023-11-18T09:19:31;21.5;;;13.0;;
45382;SDS011;42455;51.660;5.824;2023-11-18T09:24:37;16.0;;;13.0;;
45382;SDS011;42455;51.660;5.824;2023-11-18T09:29:44;13.0;;;12.0;;
45382;SDS011;42455;51.660;5.824;2023-11-18T09:34:50;14.0;;;11.0;;
45382;SDS011;42455;51.660;5.824;2023-11-18T09:39:56;15.0;;;11.0;;
45382;SDS011;42455;51.660;5.824;2023-11-18T09:45:02;15.0;;;10.0;;
45382;SDS011;42455;51.660;5.824;2023-11-18T09:50:12;12.0;;;9.0;;
45382;SDS011;42455;51.660;5.824;2023-11-18T09:55:59;12.5;;;9.0;;
45382;SDS011;42455;51.660;5.824;2023-11-18T10:00:21;12.5;;;9.0;;
45382;SDS011;42455;51.660;5.824;2023-11-18T10:05:28;13.0;;;9.0;;
45382;SDS011;42455;51.660;5.824;2023-11-18T10:10:34;12.0;;;9.0;;
45382;SDS011;42455;51.660;5.824;2023-11-18T10:15:40;14.5;;;9.0;;
45382;SDS011;42455;51.660;5.824;2023-11-18T10:20:52;10.0;;;8.0;;
45382;SDS011;42455;51.660;5.824;2023-11-18T10:25:53;12.0;;;9.0;;
45382;SDS011;42455;51.660;5.824;2023-11-18T10:30:59;10.0;;;7.5;;
45382;SDS011;42455;51.660;5.824;2023-11-18T10:36:05;9.5;;;7.0;;
45382;SDS011;42455;51.660;5.824;2023-11-18T10:41:11;9.0;;;7.0;;
45382;SDS011;42455;51.660;5.824;2023-11-18T10:46:17;10.5;;;7.0;;
45382;SDS011;42455;51.660;5.824;2023-11-18T10:51:23;9.0;;;7.0;;
45382;SDS011;42455;51.660;5.824;2023-11-18T10:56:29;10.0;;;7.0;;
45382;SDS011;42455;51.660;5.824;2023-11-18T11:01:36;9.0;;;7.0;;
45382;SDS011;42455;51.660;5.824;2023-11-18T11:06:43;9.0;;;7.0;;
45382;SDS011;42455;51.660;5.824;2023-11-18T11:11:53;10.0;;;8.0;;
45382;SDS011;42455;51.660;5.824;2023-11-18T11:17:00;10.0;;;7.0;;
45382;SDS011;42455;51.660;5.824;2023-11-18T11:22:05;9.0;;;7.0;;
45382;SDS011;42455;51.660;5.824;2023-11-18T11:29:07;9.0;;;7.0;;
45382;SDS011;42455;51.660;5.824;2023-11-18T11:34:21;9.0;;;7.0;;
45382;SDS011;42455;51.660;5.824;2023-11-18T11:37:19;9.0;;;6.0;;
45382;SDS011;42455;51.660;5.824;2023-11-18T11:42:25;9.0;;;7.0;;
45382;SDS011;42455;51.660;5.824;2023-11-18T11:47:31;10.0;;;8.0;;
45382;SDS011;42455;51.660;5.824;2023-11-18T11:52:56;9.0;;;7.0;;
45382;SDS011;42455;51.660;5.824;2023-11-18T11:57:48;10.0;;;7.0;;
45382;SDS011;42455;51.660;5.824;2023-11-18T12:02:50;10.0;;;8.0;;
45382;SDS011;42455;51.660;5.824;2023-11-18T12:07:56;10.0;;;8.0;;
45382;SDS011;42455;51.660;5.824;2023-11-18T12:13:07;11.0;;;8.0;;
45382;SDS011;42455;51.660;5.824;2023-11-18T12:18:10;8.5;;;7.0;;
45382;SDS011;42455;51.660;5.824;2023-11-18T12:23:15;9.0;;;6.0;;
45382;SDS011;42455;51.660;5.824;2023-11-18T12:28:24;9.0;;;6.0;;
45382;SDS011;42455;51.660;5.824;2023-11-18T12:33:52;10.0;;;5.0;;
45382;SDS011;42455;51.660;5.824;2023-11-18T12:40:58;7.0;;;6.0;;
45382;SDS011;42455;51.660;5.824;2023-11-18T12:43:46;9.0;;;7.0;;
45382;SDS011;42455;51.660;5.824;2023-11-18T12:48:46;9.5;;;6.0;;
45382;SDS011;42455;51.660;5.824;2023-11-18T12:53:52;12.0;;;10.0;;
45382;SDS011;42455;51.660;5.824;2023-11-18T12:58:58;8.0;;;4.0;;
45382;SDS011;42455;51.660;5.824;2023-11-18T13:04:04;6.5;;;4.0;;
45382;SDS011;42455;51.660;5.824;2023-11-18T13:09:11;7.0;;;4.0;;
45382;SDS011;42455;51.660;5.824;2023-11-18T13:14:17;5.0;;;4.0;;
45382;SDS011;42455;51.660;5.824;2023-11-18T13:19:23;6.0;;;3.0;;
45382;SDS011;42455;51.660;5.824;2023-11-18T13:24:29;6.0;;;3.0;;
45382;SDS011;42455;51.660;5.824;2023-11-18T13:29:37;5.0;;;2.0;;
45382;SDS011;42455;51.660;5.824;2023-11-18T13:34:42;5.0;;;2.0;;
45382;SDS011;42455;51.660;5.824;2023-11-18T13:39:52;5.0;;;4.0;;
45382;SDS011;42455;51.660;5.824;2023-11-18T13:44:54;3.0;;;3.0;;
45382;SDS011;42455;51.660;5.824;2023-11-18T13:50:00;4.0;;;2.0;;
45382;SDS011;42455;51.660;5.824;2023-11-18T13:55:07;3.0;;;2.0;;
45382;SDS011;42455;51.660;5.824;2023-11-18T14:00:13;2.0;;;2.0;;
45382;SDS011;42455;51.660;5.824;2023-11-18T14:05:21;3.0;;;2.0;;
45382;SDS011;42455;51.660;5.824;2023-11-18T14:10:24;5.0;;;4.0;;
45382;SDS011;42455;51.660;5.824;2023-11-18T14:15:30;10.0;;;8.0;;
45382;SDS011;42455;51.660;5.824;2023-11-18T14:20:37;3.0;;;3.0;;
45382;SDS011;42455;51.660;5.824;2023-11-18T14:25:43;3.0;;;3.0;;
45382;SDS011;42455;51.660;5.824;2023-11-18T14:30:49;4.0;;;4.0;;
45382;SDS011;42455;51.660;5.824;2023-11-18T14:35:55;3.0;;;2.0;;
45382;SDS011;42455;51.660;5.824;2023-11-18T14:41:02;3.0;;;2.0;;
45382;SDS011;42455;51.660;5.824;2023-11-18T14:46:08;3.5;;;2.0;;
45382;SDS011;42455;51.660;5.824;2023-11-18T14:51:14;3.0;;;2.0;;
45382;SDS011;42455;51.660;5.824;2023-11-18T14:56:20;3.0;;;2.0;;
45382;SDS011;42455;51.660;5.824;2023-11-18T15:01:26;3.0;;;2.0;;
45382;SDS011;42455;51.660;5.824;2023-11-18T15:06:32;7.5;;;7.0;;
45382;SDS011;42455;51.660;5.824;2023-11-18T15:11:39;3.0;;;2.0;;
45382;SDS011;42455;51.660;5.824;2023-11-18T15:16:45;3.0;;;3.0;;
45382;SDS011;42455;51.660;5.824;2023-11-18T15:21:51;2.0;;;2.0;;
45382;SDS011;42455;51.660;5.824;2023-11-18T15:26:57;3.0;;;3.0;;
45382;SDS011;42455;51.660;5.824;2023-11-18T15:32:03;3.0;;;3.0;;
45382;SDS011;42455;51.660;5.824;2023-11-18T15:37:10;3.0;;;3.0;;
45382;SDS011;42455;51.660;5.824;2023-11-18T15:42:16;3.0;;;3.0;;
45382;SDS011;42455;51.660;5.824;2023-11-18T15:47:22;3.0;;;3.0;;
45382;SDS011;42455;51.660;5.824;2023-11-18T15:52:28;3.0;;;3.0;;
45382;SDS011;42455;51.660;5.824;2023-11-18T15:57:34;3.0;;;3.0;;
45382;SDS011;42455;51.660;5.824;2023-11-18T16:02:41;3.0;;;3.0;;
45382;SDS011;42455;51.660;5.824;2023-11-18T16:07:49;6.0;;;5.0;;
45382;SDS011;42455;51.660;5.824;2023-11-18T16:12:54;12.0;;;11.0;;
45382;SDS011;42455;51.660;5.824;2023-11-18T16:17:59;5.0;;;5.0;;
45382;SDS011;42455;51.660;5.824;2023-11-18T16:23:06;6.5;;;6.0;;
45382;SDS011;42455;51.660;5.824;2023-11-18T16:28:12;13.0;;;12.0;;
45382;SDS011;42455;51.660;5.824;2023-11-18T16:33:18;5.0;;;5.0;;
45382;SDS011;42455;51.660;5.824;2023-11-18T16:38:24;8.0;;;7.0;;
45382;SDS011;42455;51.660;5.824;2023-11-18T16:43:30;5.0;;;4.0;;
45382;SDS011;42455;51.660;5.824;2023-11-18T16:48:37;6.0;;;5.0;;
45382;SDS011;42455;51.660;5.824;2023-11-18T16:53:43;13.0;;;12.0;;
45382;SDS011;42455;51.660;5.824;2023-11-18T16:58:49;12.0;;;11.0;;
45382;SDS011;42455;51.660;5.824;2023-11-18T17:03:55;11.0;;;10.0;;
45382;SDS011;42455;51.660;5.824;2023-11-18T17:09:02;5.0;;;5.0;;
45382;SDS011;42455;51.660;5.824;2023-11-18T17:14:08;6.0;;;6.0;;
45382;SDS011;42455;51.660;5.824;2023-11-18T17:19:14;6.0;;;6.0;;
45382;SDS011;42455;51.660;5.824;2023-11-18T17:24:20;3.0;;;2.0;;
45382;SDS011;42455;51.660;5.824;2023-11-18T17:29:26;2.0;;;2.0;;
45382;SDS011;42455;51.660;5.824;2023-11-18T17:34:32;2.0;;;2.0;;
45382;SDS011;42455;51.660;5.824;2023-11-18T17:39:39;2.0;;;2.0;;
45382;SDS011;42455;51.660;5.824;2023-11-18T17:44:45;2.0;;;2.0;;
45382;SDS011;42455;51.660;5.824;2023-11-18T17:49:51;3.0;;;2.0;;
45382;SDS011;42455;51.660;5.824;2023-11-18T17:54:57;2.0;;;2.0;;
45382;SDS011;42455;51.660;5.824;2023-11-18T18:00:04;2.0;;;2.0;;
45382;SDS011;42455;51.660;5.824;2023-11-18T18:05:10;4.0;;;4.0;;
45382;SDS011;42455;51.660;5.824;2023-11-18T18:10:16;6.0;;;5.0;;
45382;SDS011;42455;51.660;5.824;2023-11-18T18:15:22;13.0;;;12.0;;
45382;SDS011;42455;51.660;5.824;2023-11-18T18:20:28;6.0;;;5.5;;
45382;SDS011;42455;51.660;5.824;2023-11-18T18:25:35;4.0;;;4.0;;
45382;SDS011;42455;51.660;5.824;2023-11-18T18:30:41;4.0;;;3.0;;
45382;SDS011;42455;51.660;5.824;2023-11-18T18:35:47;4.0;;;3.0;;
45382;SDS011;42455;51.660;5.824;2023-11-18T18:40:53;4.0;;;4.0;;
45382;SDS011;42455;51.660;5.824;2023-11-18T18:45:59;5.0;;;4.0;;
45382;SDS011;42455;51.660;5.824;2023-11-18T18:51:06;5.0;;;5.0;;
45382;SDS011;42455;51.660;5.824;2023-11-18T18:56:12;5.0;;;5.0;;
45382;SDS011;42455;51.660;5.824;2023-11-18T19:01:18;5.0;;;5.0;;
45382;SDS011;42455;51.660;5.824;2023-11-18T19:06:24;5.0;;;4.0;;
45382;SDS011;42455;51.660;5.824;2023-11-18T19:11:30;5.0;;;4.0;;
45382;SDS011;42455;51.660;5.824;2023-11-18T19:16:37;4.0;;;4.0;;
45382;SDS011;42455;51.660;5.824;2023-11-18T19:21:43;5.0;;;4.5;;
45382;SDS011;42455;51.660;5.824;2023-11-18T19:26:49;5.0;;;4.0;;
45382;SDS011;42455;51.660;5.824;2023-11-18T19:31:55;6.5;;;6.0;;
45382;SDS011;42455;51.660;5.824;2023-11-18T19:37:01;12.5;;;9.5;;
45382;SDS011;42455;51.660;5.824;2023-11-18T19:42:07;6.0;;;5.0;;
45382;SDS011;42455;51.660;5.824;2023-11-18T19:47:13;6.0;;;6.0;;
45382;SDS011;42455;51.660;5.824;2023-11-18T19:52:19;6.0;;;5.0;;
45382;SDS011;42455;51.660;5.824;2023-11-18T19:57:25;6.0;;;5.0;;
45382;SDS011;42455;51.660;5.824;2023-11-18T20:02:32;5.0;;;5.0;;
45382;SDS011;42455;51.660;5.824;2023-11-18T20:07:38;6.0;;;6.0;;
45382;SDS011;42455;51.660;5.824;2023-11-18T20:12:43;5.0;;;5.0;;
45382;SDS011;42455;51.660;5.824;2023-11-18T20:17:49;6.0;;;5.0;;
45382;SDS011;42455;51.660;5.824;2023-11-18T20:22:55;5.0;;;5.0;;
45382;SDS011;42455;51.660;5.824;2023-11-18T20:28:02;5.5;;;5.0;;
45382;SDS011;42455;51.660;5.824;2023-11-18T20:33:08;6.0;;;5.0;;
45382;SDS011;42455;51.660;5.824;2023-11-18T20:38:14;6.0;;;6.0;;
45382;SDS011;42455;51.660;5.824;2023-11-18T20:43:20;6.0;;;6.0;;
45382;SDS011;42455;51.660;5.824;2023-11-18T20:48:26;7.0;;;6.0;;
45382;SDS011;42455;51.660;5.824;2023-11-18T20:53:33;8.0;;;7.0;;
45382;SDS011;42455;51.660;5.824;2023-11-18T20:58:39;8.0;;;7.0;;
45382;SDS011;42455;51.660;5.824;2023-11-18T21:03:45;8.0;;;8.0;;
45382;SDS011;42455;51.660;5.824;2023-11-18T21:08:51;8.0;;;8.0;;
45382;SDS011;42455;51.660;5.824;2023-11-18T21:13:58;9.0;;;8.0;;
45382;SDS011;42455;51.660;5.824;2023-11-18T21:19:04;9.0;;;8.0;;
45382;SDS011;42455;51.660;5.824;2023-11-18T21:24:10;9.5;;;9.0;;
45382;SDS011;42455;51.660;5.824;2023-11-18T21:29:16;10.0;;;9.0;;
45382;SDS011;42455;51.660;5.824;2023-11-18T21:34:22;10.0;;;9.0;;
45382;SDS011;42455;51.660;5.824;2023-11-18T21:39:28;10.0;;;9.0;;
45382;SDS011;42455;51.660;5.824;2023-11-18T21:44:35;9.5;;;9.0;;
45382;SDS011;42455;51.660;5.824;2023-11-18T21:49:41;10.0;;;9.0;;
45382;SDS011;42455;51.660;5.824;2023-11-18T21:54:47;9.5;;;9.0;;
45382;SDS011;42455;51.660;5.824;2023-11-18T21:59:53;10.0;;;9.0;;
45382;SDS011;42455;51.660;5.824;2023-11-18T22:05:00;10.0;;;9.0;;
45382;SDS011;42455;51.660;5.824;2023-11-18T22:10:06;10.0;;;10.0;;
45382;SDS011;42455;51.660;5.824;2023-11-18T22:15:12;10.0;;;9.0;;
45382;SDS011;42455;51.660;5.824;2023-11-18T22:20:18;10.0;;;9.0;;
45382;SDS011;42455;51.660;5.824;2023-11-18T22:25:24;10.0;;;9.0;;
45382;SDS011;42455;51.660;5.824;2023-11-18T22:30:31;10.0;;;10.0;;
45382;SDS011;42455;51.660;5.824;2023-11-18T22:35:37;9.0;;;8.5;;
45382;SDS011;42455;51.660;5.824;2023-11-18T22:40:43;10.0;;;9.0;;
45382;SDS011;42455;51.660;5.824;2023-11-18T22:45:49;9.0;;;8.0;;
45382;SDS011;42455;51.660;5.824;2023-11-18T22:50:55;9.0;;;8.0;;
45382;SDS011;42455;51.660;5.824;2023-11-18T22:56:02;10.0;;;9.0;;
45382;SDS011;42455;51.660;5.824;2023-11-18T23:01:08;9.0;;;9.0;;
45382;SDS011;42455;51.660;5.824;2023-11-18T23:09:20;9.0;;;9.0;;
45382;SDS011;42455;51.660;5.824;2023-11-18T23:11:20;10.0;;;9.0;;
45382;SDS011;42455;51.660;5.824;2023-11-18T23:16:27;10.0;;;9.0;;
45382;SDS011;42455;51.660;5.824;2023-11-18T23:21:33;10.0;;;9.0;;
45382;SDS011;42455;51.660;5.824;2023-11-18T23:26:39;11.0;;;10.0;;
45382;SDS011;42455;51.660;5.824;2023-11-18T23:31:45;10.0;;;9.0;;
45382;SDS011;42455;51.660;5.824;2023-11-18T23:36:51;10.0;;;10.0;;
45382;SDS011;42455;51.660;5.824;2023-11-18T23:41:57;11.0;;;10.0;;
45382;SDS011;42455;51.660;5.824;2023-11-18T23:47:04;10.0;;;9.0;;
45382;SDS011;42455;51.660;5.824;2023-11-18T23:52:10;10.0;;;9.0;;
45382;SDS011;42455;51.660;5.824;2023-11-18T23:57:16;10.0;;;9.0;;
